Bookmark and Share
Track history (hours):
 

Hansa Marburg

Last reported at 2014-Apr-23 06:30 UTC. Time now 2014-Apr-23 06:47 UTC.
Position N 36°08' W 005°25'.

Length 175 m; draft 8.9 m.

Type: Ship (hazmat cat B). MMSI: 636091218.

NotesDate/timePositionNaut miles runAvg speedWind from/ knotsBaromVisibWave heightAir tempDewpointWater temp
2014-Apr-23 06:30N 36°08' W 005°25'0 0.1
2014-Apr-23 05:33N 36°08' W 005°25'3 2.6
2014-Apr-23 04:33N 36°05' W 005°24'0 0.1
2014-Apr-23 03:33N 36°05' W 005°24'0 0.1
2014-Apr-23 02:28N 36°05' W 005°24'0 0.1
2014-Apr-23 01:33N 36°05' W 005°24'0 0.1
2014-Apr-23 00:30N 36°05' W 005°24'0 0.0
2014-Apr-22 23:32N 36°05' W 005°24'0 0.1
2014-Apr-22 22:31N 36°05' W 005°24'0 0.4
2014-Apr-22 21:33N 36°05' W 005°24'2 2.2
2014-Apr-22 20:33N 36°03' W 005°23'13 0.7
2014-Apr-22 03:04N 35°54' W 005°33'1 0.2
2014-Apr-21 22:26N 35°55' W 005°34'10 7.8
2014-Apr-21 21:08N 35°54' W 005°46'  
2014-Apr-15 22:19N 10°23' W 016°55'1515.6
2014-Apr-15 21:22N 10°11' W 016°47'1515.5
2014-Apr-15 20:24N 09°59' W 016°39'1315.8
2014-Apr-15 19:33N 09°50' W 016°28'7815.7
2014-Apr-15 14:33N 08°57' W 015°30'3110.4
2014-Apr-15 11:33N 08°37' W 015°05'3215.6
2014-Apr-15 09:31N 08°15' W 014°42'  

Dump ship's entire track history

sailing weather and tide predictions

Hansa Marburg — A8KV6 — position and weather